Time;durP1;ratioP1;P1;durP2;ratioP2;P2;SDS_P1;SDS_P2;PMS_P1;PMS_P2;Temp;Humidity;BMP_temperature;BMP_pressure;BME280_temperature;BME280_humidity;BME280_pressure;Samples;Min_cycle;Max_cycle;Signal;HPM_P1;HPM_P2
2022/06/30 00:00:11;;;;;;;6.03;5.37;;;;;;;;;;5023090;28;20499;-81
2022/06/30 00:02:38;;;;;;;5.73;5.33;;;;;;;;;;5027203;28;20485;-83
2022/06/30 00:05:05;;;;;;;6.43;5.93;;;;;;;;;;5025771;28;20462;-83
2022/06/30 00:07:33;;;;;;;6.60;6.10;;;;;;;;;;5027968;28;20465;-82
2022/06/30 00:10:01;;;;;;;5.70;5.30;;;;;;;;;;5022928;28;20457;-81
2022/06/30 00:12:28;;;;;;;5.70;5.30;;;;;;;;;;5032386;28;20442;-81
2022/06/30 00:14:56;;;;;;;5.70;5.10;;;;;;;;;;5028063;28;20807;-81
2022/06/30 00:17:24;;;;;;;6.93;6.33;;;;;;;;;;5025058;28;20454;-81
2022/06/30 00:19:51;;;;;;;6.47;5.63;;;;;;;;;;5021977;28;20462;-81
2022/06/30 00:22:18;;;;;;;6.40;5.90;;;;;;;;;;5028244;28;20510;-82
2022/06/30 00:24:45;;;;;;;5.57;5.07;;;;;;;;;;5022045;28;20469;-82
2022/06/30 00:27:12;;;;;;;5.27;4.87;;;;;;;;;;5023871;28;20457;-82
2022/06/30 00:29:39;;;;;;;5.30;4.80;;;;;;;;;;5021304;28;20512;-82
2022/06/30 00:32:08;;;;;;;6.03;5.30;;;;;;;;;;5026173;28;20461;-81
2022/06/30 00:34:35;;;;;;;4.73;4.40;;;;;;;;;;5027822;28;20458;-83
2022/06/30 00:37:03;;;;;;;4.27;3.97;;;;;;;;;;5027102;28;21248;-82
2022/06/30 00:39:30;;;;;;;5.70;5.20;;;;;;;;;;5025155;28;20457;-82
2022/06/30 00:41:57;;;;;;;5.93;5.47;;;;;;;;;;5027740;28;20455;-82
2022/06/30 00:44:24;;;;;;;6.33;5.73;;;;;;;;;;5025647;28;21072;-82
2022/06/30 00:46:52;;;;;;;5.20;4.90;;;;;;;;;;5026402;28;20961;-82
2022/06/30 00:49:20;;;;;;;5.57;5.07;;;;;;;;;;5023599;28;21016;-82
2022/06/30 00:51:47;;;;;;;6.30;5.80;;;;;;;;;;5031470;28;20462;-82
2022/06/30 00:54:15;;;;;;;5.70;5.30;;;;;;;;;;5027989;28;20505;-82
2022/06/30 00:56:43;;;;;;;5.70;5.30;;;;;;;;;;5027401;28;20458;-82
2022/06/30 00:59:11;;;;;;;5.90;5.40;;;;;;;;;;5026691;28;20450;-83
2022/06/30 01:01:38;;;;;;;5.67;5.27;;;;;;;;;;5024126;28;20837;-83
2022/06/30 01:04:07;;;;;;;5.67;4.90;;;;;;;;;;5024956;28;20457;-82
2022/06/30 01:06:36;;;;;;;4.30;4.00;;;;;;;;;;5027424;28;20941;-82
2022/06/30 01:09:04;;;;;;;6.40;5.90;;;;;;;;;;5019670;28;22043;-82
2022/06/30 01:14:18;;;;;;;4.87;4.40;;;;;;;;;;5021602;28;20465;-82
2022/06/30 01:16:45;;;;;;;5.63;5.23;;;;;;;;;;5021491;28;20853;-83
2022/06/30 01:19:13;;;;;;;4.33;4.00;;;;;;;;;;5023990;28;20458;-83
2022/06/30 01:21:41;;;;;;;5.03;4.63;;;;;;;;;;5025337;28;20466;-82
2022/06/30 01:24:09;;;;;;;4.90;4.57;;;;;;;;;;5027281;28;20795;-81
2022/06/30 01:26:36;;;;;;;5.50;5.10;;;;;;;;;;5033210;28;20426;-83
2022/06/30 01:29:07;;;;;;;5.00;4.60;;;;;;;;;;5024676;28;20486;-82
2022/06/30 01:31:34;;;;;;;5.50;5.10;;;;;;;;;;5025454;28;21025;-82
2022/06/30 01:34:01;;;;;;;6.10;5.50;;;;;;;;;;5031884;28;20454;-82
2022/06/30 01:36:28;;;;;;;4.83;4.53;;;;;;;;;;5026091;28;20482;-82
2022/06/30 01:38:56;;;;;;;5.50;5.00;;;;;;;;;;5033967;28;20442;-82
2022/06/30 01:41:23;;;;;;;5.67;5.30;;;;;;;;;;5036868;28;20446;-81
2022/06/30 01:43:50;;;;;;;5.20;4.80;;;;;;;;;;5039059;28;20455;-83
2022/06/30 01:46:21;;;;;;;5.67;5.27;;;;;;;;;;5026742;28;20913;-82
2022/06/30 01:48:48;;;;;;;5.23;4.73;;;;;;;;;;5028472;28;21380;-81
2022/06/30 01:51:15;;;;;;;4.40;4.10;;;;;;;;;;5032617;28;20473;-81
2022/06/30 01:53:42;;;;;;;5.63;5.23;;;;;;;;;;5032960;28;20461;-82
2022/06/30 01:56:11;;;;;;;5.40;4.90;;;;;;;;;;5039979;28;20535;-82
2022/06/30 01:58:38;;;;;;;4.47;4.17;;;;;;;;;;5027641;28;20462;-81
2022/06/30 02:01:05;;;;;;;5.80;5.40;;;;;;;;;;5027243;28;20462;-81
2022/06/30 02:03:32;;;;;;;5.50;5.10;;;;;;;;;;5032754;28;20454;-82
2022/06/30 02:05:59;;;;;;;5.30;4.90;;;;;;;;;;5027730;28;20447;-82
2022/06/30 02:08:26;;;;;;;5.27;4.77;;;;;;;;;;5024611;28;20467;-82
2022/06/30 02:10:53;;;;;;;5.10;4.70;;;;;;;;;;5023160;28;20506;-81
2022/06/30 02:13:21;;;;;;;5.03;4.63;;;;;;;;;;5027146;28;20972;-81
2022/06/30 02:15:49;;;;;;;5.27;4.87;;;;;;;;;;5019157;28;20468;-82
2022/06/30 02:18:16;;;;;;;5.20;4.80;;;;;;;;;;5026104;28;20528;-82
2022/06/30 02:20:43;;;;;;;5.20;4.87;;;;;;;;;;5026991;28;20515;-83
2022/06/30 02:23:10;;;;;;;6.10;5.60;;;;;;;;;;5024261;28;20494;-82
2022/06/30 02:25:37;;;;;;;4.97;4.60;;;;;;;;;;5027266;28;20478;-82
2022/06/30 02:28:05;;;;;;;5.67;5.20;;;;;;;;;;5027404;28;20511;-82
2022/06/30 02:30:33;;;;;;;5.20;4.80;;;;;;;;;;5017132;28;20486;-82
2022/06/30 02:33:00;;;;;;;5.10;4.73;;;;;;;;;;5022881;28;20469;-82
2022/06/30 02:35:28;;;;;;;5.17;4.77;;;;;;;;;;5024300;28;20446;-82
2022/06/30 02:37:56;;;;;;;5.70;5.20;;;;;;;;;;5025489;28;20492;-82
2022/06/30 02:40:23;;;;;;;5.33;4.83;;;;;;;;;;5021182;28;20442;-82
2022/06/30 02:42:50;;;;;;;5.10;4.70;;;;;;;;;;5023019;28;20469;-82
2022/06/30 02:45:17;;;;;;;5.03;4.63;;;;;;;;;;5024705;28;20453;-83
2022/06/30 02:47:46;;;;;;;5.50;5.10;;;;;;;;;;5022280;28;20451;-82
2022/06/30 02:50:14;;;;;;;5.50;5.10;;;;;;;;;;5034409;28;20853;-82
2022/06/30 02:52:42;;;;;;;5.50;5.00;;;;;;;;;;5028870;28;20454;-83
2022/06/30 02:55:09;;;;;;;5.30;4.90;;;;;;;;;;5027726;28;20470;-84
2022/06/30 02:57:37;;;;;;;5.50;5.00;;;;;;;;;;5018326;28;20473;-82
2022/06/30 03:00:05;;;;;;;5.30;4.80;;;;;;;;;;5017840;28;20968;-82
2022/06/30 03:02:32;;;;;;;5.97;5.30;;;;;;;;;;5025260;28;20462;-81
2022/06/30 03:05:01;;;;;;;5.90;5.40;;;;;;;;;;5025045;28;20454;-82
2022/06/30 03:07:28;;;;;;;4.13;3.83;;;;;;;;;;5021220;28;20478;-82
2022/06/30 03:09:55;;;;;;;5.30;4.90;;;;;;;;;;5016381;28;20478;-83
2022/06/30 03:12:22;;;;;;;5.40;4.90;;;;;;;;;;5023059;28;20667;-82
2022/06/30 03:14:49;;;;;;;5.00;4.60;;;;;;;;;;5020666;28;20511;-82
2022/06/30 03:17:16;;;;;;;5.30;4.90;;;;;;;;;;5024971;28;20462;-82
2022/06/30 03:19:43;;;;;;;5.30;4.90;;;;;;;;;;5031698;28;20455;-81
2022/06/30 03:22:12;;;;;;;4.73;4.43;;;;;;;;;;5032276;28;20474;-81
2022/06/30 03:24:39;;;;;;;5.03;4.53;;;;;;;;;;5033787;28;20454;-81
2022/06/30 03:27:06;;;;;;;4.93;4.30;;;;;;;;;;5042670;28;21210;-81
2022/06/30 03:29:33;;;;;;;6.20;5.70;;;;;;;;;;5039776;28;20517;-81
2022/06/30 03:32:00;;;;;;;5.03;4.60;;;;;;;;;;5033565;28;20492;-81
2022/06/30 03:34:27;;;;;;;5.37;4.87;;;;;;;;;;5036676;28;20447;-81
2022/06/30 03:36:54;;;;;;;5.77;5.20;;;;;;;;;;5017895;28;20477;-82
2022/06/30 03:39:23;;;;;;;5.63;5.23;;;;;;;;;;5018306;28;20454;-81
2022/06/30 03:41:50;;;;;;;5.53;5.13;;;;;;;;;;5030724;28;20470;-82
2022/06/30 03:44:17;;;;;;;5.83;5.43;;;;;;;;;;5026628;28;20442;-82
2022/06/30 03:46:44;;;;;;;6.20;5.70;;;;;;;;;;5021756;28;20490;-82
2022/06/30 03:49:11;;;;;;;5.60;5.10;;;;;;;;;;5022516;28;20476;-82
2022/06/30 03:51:38;;;;;;;4.77;4.37;;;;;;;;;;5019080;28;20470;-83
2022/06/30 03:54:05;;;;;;;4.57;4.17;;;;;;;;;;5026420;28;20443;-82
2022/06/30 03:56:34;;;;;;;5.30;4.90;;;;;;;;;;5019451;28;20462;-83
2022/06/30 03:59:01;;;;;;;5.50;5.10;;;;;;;;;;5014781;28;20458;-82
2022/06/30 04:01:28;;;;;;;5.23;4.73;;;;;;;;;;5018787;28;20486;-82
2022/06/30 04:03:55;;;;;;;6.67;6.07;;;;;;;;;;5017537;28;20538;-83
2022/06/30 04:06:23;;;;;;;5.50;5.10;;;;;;;;;;5025502;28;20877;-82
2022/06/30 04:08:50;;;;;;;4.63;4.23;;;;;;;;;;5018145;28;20557;-82
2022/06/30 04:11:17;;;;;;;4.60;4.30;;;;;;;;;;5030549;28;20835;-82
2022/06/30 04:13:45;;;;;;;5.37;4.97;;;;;;;;;;5033026;28;20813;-82
2022/06/30 04:16:13;;;;;;;4.77;4.20;;;;;;;;;;5018779;28;20462;-82
2022/06/30 04:18:40;;;;;;;5.13;4.73;;;;;;;;;;5026794;28;20469;-82
2022/06/30 04:21:07;;;;;;;5.17;4.77;;;;;;;;;;5024081;28;20953;-82
2022/06/30 04:23:34;;;;;;;5.40;5.00;;;;;;;;;;5022049;28;20977;-83
2022/06/30 04:26:01;;;;;;;6.70;6.10;;;;;;;;;;5033192;28;20458;-83
2022/06/30 04:28:28;;;;;;;4.53;4.13;;;;;;;;;;5022539;28;20462;-83
2022/06/30 04:33:41;;;;;;;5.38;4.97;;;;;;;;;;5031605;28;20450;-82
2022/06/30 04:36:08;;;;;;;4.60;4.30;;;;;;;;;;5021880;28;20206;-80
2022/06/30 04:38:35;;;;;;;3.97;3.67;;;;;;;;;;5022363;28;20456;-81
2022/06/30 04:43:47;;;;;;;4.68;4.28;;;;;;;;;;5028875;28;20520;-81
2022/06/30 04:46:15;;;;;;;4.60;4.20;;;;;;;;;;5029346;28;20240;-82
2022/06/30 04:48:43;;;;;;;4.30;4.00;;;;;;;;;;5032400;28;20454;-81
2022/06/30 04:51:10;;;;;;;4.07;3.77;;;;;;;;;;5030350;28;20489;-81
2022/06/30 04:53:37;;;;;;;4.93;4.53;;;;;;;;;;5029194;28;20479;-80
2022/06/30 04:56:04;;;;;;;4.97;4.57;;;;;;;;;;5028628;28;20965;-81
2022/06/30 04:58:31;;;;;;;4.50;4.10;;;;;;;;;;5026016;28;20207;-81
2022/06/30 05:00:58;;;;;;;4.20;3.90;;;;;;;;;;5027787;28;20203;-81
2022/06/30 05:03:27;;;;;;;4.60;4.20;;;;;;;;;;5023435;28;20863;-81
2022/06/30 05:05:54;;;;;;;4.45;4.10;;;;;;;;;;5031923;28;20794;-82
2022/06/30 05:08:21;;;;;;;4.30;4.00;;;;;;;;;;5020919;28;20199;-82
2022/06/30 05:10:48;;;;;;;5.60;5.00;;;;;;;;;;5027626;28;20219;-81
2022/06/30 05:13:16;;;;;;;4.57;4.17;;;;;;;;;;5030897;28;20477;-81
2022/06/30 05:15:45;;;;;;;5.60;5.10;;;;;;;;;;5024383;28;20498;-82
2022/06/30 05:18:12;;;;;;;4.83;4.43;;;;;;;;;;5026545;28;20554;-82
2022/06/30 05:20:40;;;;;;;4.17;3.87;;;;;;;;;;5031458;28;20455;-81
2022/06/30 05:23:07;;;;;;;4.60;4.30;;;;;;;;;;5014629;28;20447;-82
2022/06/30 05:28:21;;;;;;;4.60;4.20;;;;;;;;;;5025933;28;20211;-79
2022/06/30 05:30:48;;;;;;;5.90;5.27;;;;;;;;;;5026620;28;20517;-80
2022/06/30 05:33:19;;;;;;;6.28;5.40;;;;;;;;;;5021999;28;20459;-81
2022/06/30 05:35:47;;;;;;;5.10;4.80;;;;;;;;;;5028005;28;20536;-81
2022/06/30 05:38:14;;;;;;;5.13;4.67;;;;;;;;;;5020231;28;20954;-82
2022/06/30 05:40:42;;;;;;;4.03;3.73;;;;;;;;;;5027701;28;20822;-81
2022/06/30 05:43:11;;;;;;;4.80;4.40;;;;;;;;;;5016087;28;20454;-81
2022/06/30 05:45:38;;;;;;;4.00;3.70;;;;;;;;;;5023257;28;20973;-81
2022/06/30 05:48:06;;;;;;;3.70;3.50;;;;;;;;;;5025014;28;20474;-81
2022/06/30 05:50:33;;;;;;;4.30;4.00;;;;;;;;;;5014794;28;20486;-81
2022/06/30 05:53:01;;;;;;;4.20;3.90;;;21.30;99.90;;;;;;5017663;28;20589;-81
2022/06/30 05:55:28;;;;;;;4.43;4.03;;;;;;;;;;5025939;28;20461;-81
2022/06/30 05:57:56;;;;;;;4.00;3.70;;;;;;;;;;5025713;28;20454;-81
2022/06/30 06:00:24;;;;;;;3.80;3.50;;;;;;;;;;5021348;28;20461;-80
2022/06/30 06:02:51;;;;;;;4.03;3.73;;;;;;;;;;5028077;28;20517;-80
2022/06/30 06:05:19;;;;;;;3.50;3.30;;;;;;;;;;5024297;28;20778;-80
2022/06/30 06:07:46;;;;;;;3.80;3.50;;;;;;;;;;5024566;28;20458;-80
2022/06/30 06:10:14;;;;;;;3.77;3.47;;;;;;;;;;5019082;28;20478;-80
2022/06/30 06:12:43;;;;;;;4.03;3.63;;;;;;;;;;5019031;28;20461;-80
2022/06/30 06:15:11;;;;;;;4.17;3.87;;;;;;;;;;5028263;28;20821;-80
2022/06/30 06:17:41;;;;;;;4.23;3.87;;;;;;;;;;5025203;28;21012;-80
2022/06/30 06:20:09;;;;;;;3.60;3.40;;;;;;;;;;5023413;28;20442;-80
2022/06/30 06:22:36;;;;;;;4.07;3.77;;;;;;;;;;5022513;28;20559;-80
2022/06/30 06:25:04;;;;;;;4.23;3.93;;;;;;;;;;5025162;28;20469;-80
2022/06/30 06:27:32;;;;;;;3.40;3.10;;;;;;;;;;5024868;28;20563;-80
2022/06/30 06:29:58;;;;;;;3.80;3.50;;;;;;;;;;5014706;28;20489;-80
2022/06/30 06:32:25;;;;;;;4.33;4.03;;;;;;;;;;5027493;28;20455;-79
2022/06/30 06:34:52;;;;;;;3.90;3.60;;;;;;;;;;5024696;28;20466;-80
2022/06/30 06:37:19;;;;;;;4.27;3.73;;;;;;;;;;5013307;28;20458;-81
2022/06/30 06:39:46;;;;;;;4.10;3.50;;;;;;;;;;5021512;28;20469;-81
2022/06/30 06:42:13;;;;;;;3.43;3.20;;;;;;;;;;5027991;28;20467;-80
2022/06/30 06:44:42;;;;;;;3.83;3.53;;;;;;;;;;5024236;28;20945;-80
2022/06/30 06:47:09;;;;;;;3.37;3.13;;;;;;;;;;5021096;28;20469;-81
2022/06/30 06:49:36;;;;;;;3.13;2.93;;;;;;;;;;5017614;28;20467;-78
2022/06/30 06:52:03;;;;;;;4.73;4.40;;;;;;;;;;5022625;28;20490;-80
2022/06/30 06:54:30;;;;;;;3.73;3.50;;;;;;;;;;5025432;28;20466;-76
2022/06/30 06:56:58;;;;;;;5.30;3.30;;;;;;;;;;5017963;28;20461;-77
2022/06/30 06:59:25;;;;;;;3.50;3.30;;;;;;;;;;5022373;28;20465;-76
2022/06/30 07:01:53;;;;;;;4.70;3.53;;;;;;;;;;5023374;28;20992;-77
2022/06/30 07:04:20;;;;;;;4.07;3.77;;;;;;;;;;5027339;28;20479;-77
2022/06/30 07:06:48;;;;;;;4.80;4.40;;;;;;;;;;5024444;28;20471;-79
2022/06/30 07:09:15;;;;;;;4.30;4.00;;;;;;;;;;5021218;28;20454;-78
2022/06/30 07:11:42;;;;;;;3.70;3.40;;;;;;;;;;5020249;28;20537;-78
2022/06/30 07:14:09;;;;;;;4.47;4.07;;;;;;;;;;5022065;28;20462;-78
2022/06/30 07:16:36;;;;;;;4.70;4.30;;;;;;;;;;5021297;28;21245;-79
2022/06/30 07:19:05;;;;;;;4.10;3.80;;;;;;;;;;5023530;28;20450;-79
2022/06/30 07:21:32;;;;;;;3.80;3.60;;;;;;;;;;5018493;28;20467;-78
2022/06/30 07:23:59;;;;;;;3.97;3.67;;;;;;;;;;5020553;28;20466;-78
2022/06/30 07:26:26;;;;;;;4.67;4.27;;;;;;;;;;5022619;28;20453;-78
2022/06/30 07:28:53;;;;;;;3.53;3.23;;;;;;;;;;5022615;28;20474;-78
2022/06/30 07:31:20;;;;;;;3.83;3.53;;;;;;;;;;5020903;28;20833;-77
2022/06/30 07:33:47;;;;;;;3.57;3.37;;;;;;;;;;5022392;28;20466;-78
2022/06/30 07:36:16;;;;;;;3.70;3.40;;;;;;;;;;5022736;28;20462;-78
2022/06/30 07:38:44;;;;;;;4.03;3.73;;;;;;;;;;5018380;28;20557;-79
2022/06/30 07:41:12;;;;;;;4.03;3.80;;;;;;;;;;5021790;28;20841;-79
2022/06/30 07:43:39;;;;;;;4.37;4.07;;;;;;;;;;5021220;28;20463;-78
2022/06/30 07:46:06;;;;;;;3.40;3.20;;;;;;;;;;5024374;28;20536;-77
2022/06/30 07:48:33;;;;;;;4.83;4.43;;;;;;;;;;5033020;28;20462;-78
2022/06/30 07:51:01;;;;;;;9.50;8.70;;;;;;;;;;5023237;28;20490;-77
2022/06/30 07:53:29;;;;;;;6.20;5.60;;;;;;;;;;5023467;28;20823;-77
2022/06/30 07:55:56;;;;;;;6.80;6.33;;;;;;;;;;5021684;28;20866;-77
2022/06/30 07:58:23;;;;;;;5.70;5.10;;;;;;;;;;5021668;28;20818;-78
2022/06/30 08:00:50;;;;;;;6.60;6.10;;;;;;;;;;5015469;28;20466;-77
2022/06/30 08:03:18;;;;;;;11.30;5.97;;;;;;;;;;5013581;28;21001;-78
2022/06/30 08:05:45;;;;;;;5.43;4.90;;;;;;;;;;5015807;28;20485;-77
2022/06/30 08:08:12;;;;;;;18.00;8.40;;;;;;;;;;5030348;28;20455;-77
2022/06/30 08:10:40;;;;;;;6.13;5.50;;;;;;;;;;5016545;28;20488;-79
2022/06/30 08:13:07;;;;;;;7.20;6.60;;;;;;;;;;5021774;28;20451;-77
2022/06/30 08:15:34;;;;;;;8.40;6.73;;;;;;;;;;5024841;28;20466;-76
2022/06/30 08:18:02;;;;;;;6.40;5.90;;;;;;;;;;5022647;28;20489;-80
2022/06/30 08:20:30;;;;;;;7.03;6.33;;;;;;;;;;5033592;28;20553;-80
2022/06/30 08:22:57;;;;;;;6.47;5.83;;;;;;;;;;5021886;28;20465;-80
2022/06/30 08:25:24;;;;;;;5.97;5.33;;;;;;;;;;5030180;28;20446;-80
2022/06/30 08:27:52;;;;;;;5.40;5.00;;;;;;;;;;5032199;28;20466;-80
2022/06/30 08:30:19;;;;;;;6.40;5.80;;;;;;;;;;5017166;28;20838;-80
2022/06/30 08:32:46;;;;;;;5.70;5.30;;;;;;;;;;5022902;28;20965;-80
2022/06/30 08:35:14;;;;;;;5.53;4.60;;;;;;;;;;5025381;28;20458;-80
2022/06/30 08:37:41;;;;;;;5.20;4.80;;;;;;;;;;5024803;28;20459;-80
2022/06/30 08:42:54;;;;;;;5.50;5.10;;;;;;;;;;5032398;28;20417;-80
2022/06/30 08:45:24;;;;;;;5.50;4.90;;;;;;;;;;5019982;28;20467;-80
2022/06/30 08:47:51;;;;;;;6.00;5.40;;;;;;;;;;5018856;28;20461;-80
2022/06/30 08:50:19;;;;;;;4.97;4.57;;;;;;;;;;5027589;28;20465;-80
2022/06/30 08:52:46;;;;;;;5.27;4.87;;;;;;;;;;5031655;28;20458;-81
2022/06/30 08:55:14;;;;;;;5.00;4.60;;;;;;;;;;5022274;28;20470;-81
2022/06/30 08:57:42;;;;;;;5.00;4.70;;;;;;;;;;5023886;28;20495;-82
2022/06/30 09:00:12;;;;;;;4.70;4.30;;;;;;;;;;5019251;28;22780;-81
2022/06/30 09:02:39;;;;;;;5.60;5.10;;;;;;;;;;5023845;28;20482;-81
2022/06/30 09:05:07;;;;;;;5.00;4.50;;;;;;;;;;5024071;28;20836;-81
2022/06/30 09:07:35;;;;;;;5.70;5.20;;;;;;;;;;5021530;28;20470;-81
2022/06/30 09:10:02;;;;;;;4.90;4.40;;;;;;;;;;5019471;28;20490;-81
2022/06/30 09:12:29;;;;;;;4.60;4.20;;;;;;;;;;5022336;28;20486;-81
2022/06/30 09:14:56;;;;;;;4.97;4.57;;;;;;;;;;5023446;28;20810;-81
2022/06/30 09:17:26;;;;;;;5.30;4.80;;;;;;;;;;5020128;28;20463;-81
2022/06/30 09:19:54;;;;;;;5.27;4.77;;;;;;;;;;5021780;28;20459;-81
2022/06/30 09:22:23;;;;;;;5.40;4.93;;;;;;;;;;5025127;28;21107;-81
2022/06/30 09:24:56;;;;;;;5.50;5.00;;;;;;;;;;5022731;28;20458;-81
2022/06/30 09:27:24;;;;;;;6.23;4.33;;;;;;;;;;5020519;28;20460;-81
2022/06/30 09:29:53;;;;;;;4.80;4.30;;;;;;;;;;5037043;28;20459;-81
2022/06/30 09:32:20;;;;;;;4.43;4.13;;;;;;;;;;5029283;28;20478;-81
2022/06/30 09:34:49;;;;;;;4.83;4.43;;;;;;;;;;5038021;28;20446;-81
2022/06/30 09:37:18;;;;;;;4.30;4.00;;;;;;;;;;5027522;28;20966;-81
2022/06/30 09:39:45;;;;;;;4.17;3.87;;;;;;;;;;5023982;28;20463;-81
2022/06/30 09:42:12;;;;;;;4.83;4.43;;;;;;;;;;5028644;28;20485;-81
2022/06/30 09:44:40;;;;;;;4.33;3.93;;;;;;;;;;5026090;28;20810;-81
2022/06/30 09:47:10;;;;;;;4.30;3.90;;;;;;;;;;5023472;28;20517;-81
2022/06/30 09:49:39;;;;;;;3.63;3.33;;;;;;;;;;5033258;28;20454;-81
2022/06/30 09:52:17;;;;;;;6.47;4.77;;;;;;;;;;5032531;28;20560;-81
2022/06/30 09:54:53;;;;;;;7.37;4.27;;;;;;;;;;5022436;28;20498;-81
2022/06/30 09:57:20;;;;;;;4.70;4.10;;;;;;;;;;5024475;28;20541;-81
2022/06/30 09:59:47;;;;;;;5.13;4.57;;;;;;;;;;5026682;28;20991;-81
2022/06/30 10:02:14;;;;;;;4.50;4.17;;;;;;;;;;5028016;28;20513;-80
2022/06/30 10:04:54;;;;;;;4.77;4.37;;;;;;;;;;5024548;28;20462;-80
2022/06/30 10:07:23;;;;;;;6.70;4.43;;;;;;;;;;5027394;28;22214;-81
2022/06/30 10:09:51;;;;;;;4.80;4.50;;;;;;;;;;5036275;28;20484;-81
2022/06/30 10:12:19;;;;;;;4.97;4.43;;;;;;;;;;5024678;28;21036;-81
2022/06/30 10:14:47;;;;;;;4.27;3.87;;;;;;;;;;5020694;28;20520;-81
2022/06/30 10:17:15;;;;;;;4.40;4.10;;;;;;;;;;5022947;28;20455;-82
2022/06/30 10:19:42;;;;;;;4.03;3.63;;;;;;;;;;5024660;28;20486;-81
2022/06/30 10:22:10;;;;;;;4.20;3.80;;;;;;;;;;5029192;28;20831;-79
2022/06/30 10:24:40;;;;;;;4.53;4.13;;;;;;;;;;5024048;28;20462;-80
2022/06/30 10:27:14;;;;;;;4.00;3.70;;;;;;;;;;5035605;28;20432;-81
2022/06/30 10:29:42;;;;;;;5.20;4.80;;;;;;;;;;5021289;28;20552;-81
2022/06/30 10:32:13;;;;;;;4.70;4.30;;;;;;;;;;5025506;28;20487;-81
2022/06/30 10:34:44;;;;;;;4.07;3.73;;;;;;;;;;5020519;28;20451;-81
2022/06/30 10:37:17;;;;;;;4.90;4.50;;;;;;;;;;5020193;28;20462;-81
2022/06/30 10:39:48;;;;;;;4.23;3.87;;;;;;;;;;5020655;28;20467;-81
2022/06/30 10:42:30;;;;;;;4.10;3.80;;;;;;;;;;5029859;28;20454;-81
2022/06/30 10:44:57;;;;;;;3.47;3.17;;;;;;;;;;5033702;28;20449;-81
2022/06/30 10:47:24;;;;;;;3.90;3.40;;;;;;;;;;5027006;28;21003;-81
2022/06/30 10:49:56;;;;;;;4.40;4.10;;;;;;;;;;5025236;28;20964;-82
2022/06/30 10:52:24;;;;;;;3.80;3.50;;;;;;;;;;5029124;28;20558;-81
2022/06/30 10:55:00;;;;;;;4.10;3.70;;;;;;;;;;5030609;28;20840;-81
2022/06/30 10:57:27;;;;;;;3.73;3.43;;;;;;;;;;5024301;28;20521;-82
2022/06/30 10:59:54;;;;;;;4.63;3.37;;;;;;;;;;5019878;28;20463;-80
2022/06/30 11:02:22;;;;;;;4.97;3.40;;;;;;;;;;5016759;28;20478;-81
2022/06/30 11:04:50;;;;;;;3.73;3.43;;;;;;;;;;5025462;28;20563;-81
2022/06/30 11:07:20;;;;;;;3.73;3.30;;;;;;;;;;5023900;28;20517;-81
2022/06/30 11:10:08;;;;;;;3.77;3.47;;;;;;;;;;5021054;28;20554;-81
2022/06/30 11:12:54;;;;;;;3.47;3.20;;;;;;;;;;5019622;28;20487;-81
2022/06/30 11:15:22;;;;;;;3.47;3.27;;;;;;;;;;5018697;28;20928;-80
2022/06/30 11:17:53;;;;;;;3.87;3.43;;;;;;;;;;5018302;28;20463;-81
2022/06/30 11:20:20;;;;;;;3.50;3.20;;;;;;;;;;5033163;28;20473;-80
2022/06/30 11:22:47;;;;;;;3.47;3.27;;;;;;;;;;5018370;28;20498;-80
2022/06/30 11:27:17;;;;;;;3.83;3.53;;;;;;;;;;5028875;28;20453;-81
2022/06/30 11:28:01;;;;;;;3.80;3.07;;;;;;;;;;5035530;28;20453;-81
2022/06/30 11:30:34;;;;;;;3.40;3.03;;;;;;;;;;5019329;28;20527;-81
2022/06/30 11:33:01;;;;;;;5.23;3.40;;;;;;;;;;5018383;28;20474;-81
2022/06/30 11:35:29;;;;;;;4.17;3.13;;;;;;;;;;5017075;28;20528;-78
2022/06/30 11:37:56;;;;;;;4.53;3.13;;;;;;;;;;5023408;28;20471;-81
2022/06/30 11:40:23;;;;;;;3.10;2.90;;;;;;;;;;5026299;28;20458;-81
2022/06/30 11:42:53;;;;;;;3.20;2.93;;;;;;;;;;5021067;28;20461;-80
2022/06/30 11:45:20;;;;;;;4.30;3.90;;;;;;;;;;5030068;28;20485;-80
2022/06/30 11:47:53;;;;;;;3.60;3.30;;;;;;;;;;5030434;28;20467;-80
2022/06/30 11:50:22;;;;;;;4.13;3.83;;;;;;;;;;5030550;28;20968;-80
2022/06/30 11:52:49;;;;;;;3.87;3.57;;;;;;;;;;5023320;28;20487;-80
2022/06/30 11:55:17;;;;;;;4.03;3.73;;;;;;;;;;5031865;28;20473;-79
2022/06/30 11:57:45;;;;;;;3.87;3.57;;;;;;;;;;5033482;28;20450;-80
2022/06/30 12:00:14;;;;;;;6.87;6.37;;;;;;;;;;5031644;28;20872;-81
2022/06/30 12:02:42;;;;;;;16.37;15.13;;;;;;;;;;5024440;28;21084;-80
2022/06/30 12:05:11;;;;;;;5.13;4.50;;;;;;;;;;5027550;28;20462;-80
2022/06/30 12:07:39;;;;;;;4.93;4.47;;;;;;;;;;5029072;28;20459;-80
2022/06/30 12:10:07;;;;;;;4.17;3.87;;;;;;;;;;5022900;28;20462;-80
2022/06/30 12:12:35;;;;;;;4.70;4.40;;;;;;;;;;5022486;28;20482;-81
2022/06/30 12:15:04;;;;;;;4.20;3.80;;;;;;;;;;5030660;28;20466;-81
2022/06/30 12:17:32;;;;;;;3.50;3.20;;;;;;;;;;5030565;28;20465;-80
2022/06/30 12:20:00;;;;;;;3.70;3.17;;;;;;;;;;5030124;28;20958;-80
2022/06/30 12:22:28;;;;;;;3.30;3.07;;;;;;;;;;5025985;28;20465;-80
2022/06/30 12:24:55;;;;;;;3.80;3.50;;;;;;;;;;5024357;28;20463;-80
2022/06/30 12:27:26;;;;;;;3.23;3.03;;;;;;;;;;5031798;28;20462;-80
2022/06/30 12:29:57;;;;;;;4.33;3.93;;;;;;;;;;5035211;28;20462;-80
2022/06/30 12:32:24;;;;;;;4.20;3.67;;;;;;;;;;5030661;28;20564;-80
2022/06/30 12:34:53;;;;;;;3.07;2.73;;;;;;;;;;5030155;28;20466;-79
2022/06/30 12:37:26;;;;;;;3.13;2.93;;;;;;;;;;5031068;28;20458;-80
2022/06/30 12:39:56;;;;;;;3.30;3.00;;;;;;;;;;5026833;28;20953;-80
2022/06/30 12:42:23;;;;;;;3.53;3.23;;;;;;;;;;5024061;28;20489;-80
2022/06/30 12:44:50;;;;;;;3.53;2.93;;;;;;;;;;5025420;28;20541;-79
2022/06/30 12:47:18;;;;;;;3.30;3.00;;;;;;;;;;5019586;28;20463;-80
2022/06/30 12:49:45;;;;;;;5.23;3.50;;;;;;;;;;5027780;28;20505;-80
2022/06/30 12:52:13;;;;;;;3.83;3.53;;;;;;;;;;5030008;28;20478;-80
2022/06/30 12:54:50;;;;;;;3.20;3.00;;;;;;;;;;5029665;28;20466;-80
2022/06/30 12:57:18;;;;;;;3.10;2.80;;;;;;;;;;5024450;28;20466;-80
2022/06/30 12:59:48;;;;;;;3.27;2.83;;;;;;;;;;5029908;28;20473;-80
2022/06/30 13:02:16;;;;;;;2.97;2.77;;;;;;;;;;5023350;28;20503;-80
2022/06/30 13:04:48;;;;;;;3.60;3.17;;;;;;;;;;5038884;28;20500;-81
2022/06/30 13:07:18;;;;;;;2.60;2.40;;;;;;;;;;5042687;28;20468;-80
2022/06/30 13:09:46;;;;;;;3.00;2.80;;;;;;;;;;5036932;28;20460;-80
2022/06/30 13:12:14;;;;;;;3.50;3.27;;;;;;;;;;5030794;28;20486;-80
2022/06/30 13:14:43;;;;;;;3.67;3.37;;;;;;;;;;5036278;28;20447;-81
2022/06/30 13:17:10;;;;;;;5.30;3.17;;;;;;;;;;5027116;28;20462;-80
2022/06/30 13:19:38;;;;;;;4.47;3.13;;;;;;;;;;5033424;28;20831;-81
2022/06/30 13:22:06;;;;;;;2.97;2.73;;;;;;;;;;5030049;28;20462;-81
2022/06/30 13:24:33;;;;;;;4.30;3.20;;;;;;;;;;5028812;28;20454;-81
2022/06/30 13:27:03;;;;;;;3.10;2.90;;;;;;;;;;5034198;28;20450;-82
2022/06/30 13:29:30;;;;;;;3.93;3.63;;;;;;;;;;5036942;28;20463;-83
2022/06/30 13:31:58;;;;;;;3.30;3.00;;;;;;;;;;5026626;28;20465;-82
2022/06/30 13:34:26;;;;;;;2.70;2.50;;;;;;;;;;5026488;28;20968;-81
2022/06/30 13:36:53;;;;;;;3.13;2.83;;;;;;;;;;5032727;28;20988;-80
2022/06/30 13:39:21;;;;;;;3.17;2.97;;;;;;;;;;5025492;28;20966;-80
2022/06/30 13:41:50;;;;;;;3.20;2.87;;;;;;;;;;5026901;28;20458;-81
2022/06/30 13:44:17;;;;;;;3.30;3.00;;;;;;;;;;5028810;28;20720;-81
2022/06/30 13:46:45;;;;;;;3.20;2.90;;;;;;;;;;5031611;28;20454;-81
2022/06/30 13:49:13;;;;;;;4.03;3.03;;;;;;;;;;5034259;28;20813;-82
2022/06/30 13:51:40;;;;;;;3.63;3.43;;;;;;;;;;5031918;28;20519;-81
2022/06/30 13:54:07;;;;;;;3.50;3.20;;;;;;;;;;5025036;28;20482;-80
2022/06/30 13:56:35;;;;;;;3.57;3.00;;;;;;;;;;5032731;28;20451;-81
2022/06/30 13:59:04;;;;;;;4.00;3.70;;;;;;;;;;5029807;28;20497;-80
2022/06/30 14:01:31;;;;;;;4.10;3.70;;;;;;;;;;5029023;28;20478;-81
2022/06/30 14:03:58;;;;;;;3.47;3.10;;;;;;;;;;5023939;28;20498;-81
2022/06/30 14:06:26;;;;;;;3.97;3.37;;;;;;;;;;5032415;28;20505;-81
2022/06/30 14:08:53;;;;;;;7.70;3.93;;;;;;;;;;5030400;28;20819;-81
2022/06/30 14:11:20;;;;;;;4.17;3.77;;;;;;;;;;5026148;28;20467;-80
2022/06/30 14:13:48;;;;;;;4.03;3.60;;;;;;;;;;5025258;28;20505;-80
2022/06/30 14:16:15;;;;;;;4.33;3.93;;;;;;;;;;5028721;28;20536;-81
2022/06/30 14:18:42;;;;;;;4.57;4.20;;;;;;;;;;5016994;28;20451;-80
2022/06/30 14:21:09;;;;;;;3.80;3.37;;;;;;;;;;5038041;28;20450;-80
2022/06/30 14:23:38;;;;;;;3.80;3.50;;;;;;;;;;5021338;28;20889;-80
2022/06/30 14:26:05;;;;;;;4.33;4.00;;;;;;;;;;5026579;28;20455;-81
2022/06/30 14:28:32;;;;;;;3.70;3.43;;;;;;;;;;5029975;28;20482;-79
2022/06/30 14:30:59;;;;;;;4.53;4.10;;;;;;;;;;5032537;28;20447;-80
2022/06/30 14:33:26;;;;;;;4.20;3.80;;;;;;;;;;5035095;28;21007;-81
2022/06/30 14:35:53;;;;;;;6.63;4.03;;;;;;;;;;5036853;28;20508;-79
2022/06/30 14:38:20;;;;;;;3.10;2.80;;;;;;;;;;5029479;28;20466;-79
2022/06/30 14:40:48;;;;;;;3.57;3.27;;;;;;;;;;5031177;28;20467;-80
2022/06/30 14:43:15;;;;;;;3.90;3.50;;;;;;;;;;5029554;28;20817;-80
2022/06/30 14:45:42;;;;;;;3.47;3.17;;;;;;;;;;5029584;28;20450;-79
2022/06/30 14:48:10;;;;;;;4.40;4.10;;;;;;;;;;5030557;28;20872;-80
2022/06/30 14:50:37;;;;;;;3.53;3.23;;;;;;;;;;5028915;28;20838;-79
2022/06/30 14:53:04;;;;;;;3.23;2.90;;;;;;;;;;5031080;28;20497;-79
2022/06/30 14:55:31;;;;;;;4.30;3.93;;;;;;;;;;5032194;28;20490;-81
2022/06/30 14:58:00;;;;;;;4.23;3.90;;;;;;;;;;5029945;28;20912;-80
2022/06/30 15:00:27;;;;;;;4.87;3.70;;;;;;;;;;5017638;28;20450;-82